Report METAR

 

LIMJ -
Dati ricevuti: 03/03/2021 00:50
Sereno
Sereno
 Vento da NNE
Vento: NNE 22 km/h
Temperatura: 14°C
P.to Rugiada: 1°C
Umidità: 41%
Barometro: 1032 hPa
Summary: Sereno
Visibility: superiore a 10 km
2021/03/02 23:50 LIMJ 022350Z 03012KT CAVOK 14/01 Q1032